sensor_id;sensor_type;location;lat;lon;timestamp;temperature;humidity
36552;DHT22;22559;54.176;12.102;2024-01-06T00:01:45;0.00;99.90
36552;DHT22;22559;54.176;12.102;2024-01-06T00:04:10;-0.10;99.90
36552;DHT22;22559;54.176;12.102;2024-01-06T00:06:36;0.00;99.90
36552;DHT22;22559;54.176;12.102;2024-01-06T00:09:01;0.00;99.90
36552;DHT22;22559;54.176;12.102;2024-01-06T00:11:27;0.00;99.90
36552;DHT22;22559;54.176;12.102;2024-01-06T00:13:53;0.00;99.90
36552;DHT22;22559;54.176;12.102;2024-01-06T00:16:21;0.00;99.90
36552;DHT22;22559;54.176;12.102;2024-01-06T00:18:47;0.00;99.90
36552;DHT22;22559;54.176;12.102;2024-01-06T00:21:13;-0.10;99.90
36552;DHT22;22559;54.176;12.102;2024-01-06T00:23:42;0.00;99.90
36552;DHT22;22559;54.176;12.102;2024-01-06T00:26:08;-0.10;99.90
36552;DHT22;22559;54.176;12.102;2024-01-06T00:28:35;0.00;99.90
36552;DHT22;22559;54.176;12.102;2024-01-06T00:31:00;0.00;99.90
36552;DHT22;22559;54.176;12.102;2024-01-06T00:33:26;0.00;99.90
36552;DHT22;22559;54.176;12.102;2024-01-06T00:35:51;0.00;99.90
36552;DHT22;22559;54.176;12.102;2024-01-06T00:38:17;0.00;99.90
36552;DHT22;22559;54.176;12.102;2024-01-06T00:40:43;0.00;99.90
36552;DHT22;22559;54.176;12.102;2024-01-06T00:43:09;0.00;99.90
36552;DHT22;22559;54.176;12.102;2024-01-06T00:45:34;0.00;99.90
36552;DHT22;22559;54.176;12.102;2024-01-06T00:48:00;0.10;99.90
36552;DHT22;22559;54.176;12.102;2024-01-06T00:50:26;0.00;99.90
36552;DHT22;22559;54.176;12.102;2024-01-06T00:52:51;0.00;99.90
36552;DHT22;22559;54.176;12.102;2024-01-06T00:55:20;0.00;99.90
36552;DHT22;22559;54.176;12.102;2024-01-06T00:57:46;0.00;99.90
36552;DHT22;22559;54.176;12.102;2024-01-06T01:00:12;0.00;99.90
36552;DHT22;22559;54.176;12.102;2024-01-06T01:02:38;0.00;99.90
36552;DHT22;22559;54.176;12.102;2024-01-06T01:05:04;0.00;99.90
36552;DHT22;22559;54.176;12.102;2024-01-06T01:07:29;0.10;99.90
36552;DHT22;22559;54.176;12.102;2024-01-06T01:09:56;0.00;99.90
36552;DHT22;22559;54.176;12.102;2024-01-06T01:12:23;0.00;99.90
36552;DHT22;22559;54.176;12.102;2024-01-06T01:14:49;0.00;99.90
36552;DHT22;22559;54.176;12.102;2024-01-06T01:17:14;0.10;99.90
36552;DHT22;22559;54.176;12.102;2024-01-06T01:19:40;0.10;99.90
36552;DHT22;22559;54.176;12.102;2024-01-06T01:22:06;0.00;99.90
36552;DHT22;22559;54.176;12.102;2024-01-06T01:24:31;0.10;99.90
36552;DHT22;22559;54.176;12.102;2024-01-06T01:26:57;0.00;99.90
36552;DHT22;22559;54.176;12.102;2024-01-06T01:29:22;0.00;99.90
36552;DHT22;22559;54.176;12.102;2024-01-06T01:31:48;0.00;99.90
36552;DHT22;22559;54.176;12.102;2024-01-06T01:34:14;0.00;99.90
36552;DHT22;22559;54.176;12.102;2024-01-06T01:36:40;0.00;99.90
36552;DHT22;22559;54.176;12.102;2024-01-06T01:39:06;0.00;99.90
36552;DHT22;22559;54.176;12.102;2024-01-06T01:41:31;0.00;99.90
36552;DHT22;22559;54.176;12.102;2024-01-06T01:43:57;0.00;99.90
36552;DHT22;22559;54.176;12.102;2024-01-06T01:46:29;0.00;99.90
36552;DHT22;22559;54.176;12.102;2024-01-06T01:48:55;0.00;99.90
36552;DHT22;22559;54.176;12.102;2024-01-06T01:51:22;0.00;99.90
36552;DHT22;22559;54.176;12.102;2024-01-06T01:53:49;0.00;99.90
36552;DHT22;22559;54.176;12.102;2024-01-06T01:56:15;0.10;99.90
36552;DHT22;22559;54.176;12.102;2024-01-06T01:58:41;0.10;99.90
36552;DHT22;22559;54.176;12.102;2024-01-06T02:01:08;0.00;99.90
36552;DHT22;22559;54.176;12.102;2024-01-06T02:03:35;0.00;99.90
36552;DHT22;22559;54.176;12.102;2024-01-06T02:06:01;0.00;99.90
36552;DHT22;22559;54.176;12.102;2024-01-06T02:08:26;0.00;99.90
36552;DHT22;22559;54.176;12.102;2024-01-06T02:10:54;0.10;99.90
36552;DHT22;22559;54.176;12.102;2024-01-06T02:13:21;0.00;99.90
36552;DHT22;22559;54.176;12.102;2024-01-06T02:15:46;0.00;99.90
36552;DHT22;22559;54.176;12.102;2024-01-06T02:18:12;0.00;99.90
36552;DHT22;22559;54.176;12.102;2024-01-06T02:20:38;0.00;99.90
36552;DHT22;22559;54.176;12.102;2024-01-06T02:23:06;0.00;99.90
36552;DHT22;22559;54.176;12.102;2024-01-06T02:25:32;0.00;99.90
36552;DHT22;22559;54.176;12.102;2024-01-06T02:27:58;0.00;99.90
36552;DHT22;22559;54.176;12.102;2024-01-06T02:30:24;0.10;99.90
36552;DHT22;22559;54.176;12.102;2024-01-06T02:32:50;0.10;99.90
36552;DHT22;22559;54.176;12.102;2024-01-06T02:35:15;0.10;99.90
36552;DHT22;22559;54.176;12.102;2024-01-06T02:37:41;0.10;99.90
36552;DHT22;22559;54.176;12.102;2024-01-06T02:40:07;0.10;99.90
36552;DHT22;22559;54.176;12.102;2024-01-06T02:42:33;0.10;99.90
36552;DHT22;22559;54.176;12.102;2024-01-06T02:44:58;0.10;99.90
36552;DHT22;22559;54.176;12.102;2024-01-06T02:47:24;0.10;99.90
36552;DHT22;22559;54.176;12.102;2024-01-06T02:49:50;0.10;99.90
36552;DHT22;22559;54.176;12.102;2024-01-06T02:52:15;0.10;99.90
36552;DHT22;22559;54.176;12.102;2024-01-06T02:54:41;0.10;99.90
36552;DHT22;22559;54.176;12.102;2024-01-06T02:57:07;0.10;99.90
36552;DHT22;22559;54.176;12.102;2024-01-06T02:59:32;0.20;99.90
36552;DHT22;22559;54.176;12.102;2024-01-06T03:02:00;0.10;99.90
36552;DHT22;22559;54.176;12.102;2024-01-06T03:04:26;0.20;99.90
36552;DHT22;22559;54.176;12.102;2024-01-06T03:06:51;0.20;99.90
36552;DHT22;22559;54.176;12.102;2024-01-06T03:09:19;0.20;99.90
36552;DHT22;22559;54.176;12.102;2024-01-06T03:11:45;0.20;99.90
36552;DHT22;22559;54.176;12.102;2024-01-06T03:14:11;0.20;99.90
36552;DHT22;22559;54.176;12.102;2024-01-06T03:16:36;0.20;99.90
36552;DHT22;22559;54.176;12.102;2024-01-06T03:19:03;0.20;99.90
36552;DHT22;22559;54.176;12.102;2024-01-06T03:21:28;0.10;99.90
36552;DHT22;22559;54.176;12.102;2024-01-06T03:23:54;0.20;99.90
36552;DHT22;22559;54.176;12.102;2024-01-06T03:26:21;0.20;99.90
36552;DHT22;22559;54.176;12.102;2024-01-06T03:28:49;0.20;99.90
36552;DHT22;22559;54.176;12.102;2024-01-06T03:31:15;0.30;99.90
36552;DHT22;22559;54.176;12.102;2024-01-06T03:33:40;0.30;99.90
36552;DHT22;22559;54.176;12.102;2024-01-06T03:36:07;0.30;99.90
36552;DHT22;22559;54.176;12.102;2024-01-06T03:38:33;0.30;99.90
36552;DHT22;22559;54.176;12.102;2024-01-06T03:40:58;0.30;99.90
36552;DHT22;22559;54.176;12.102;2024-01-06T03:43:24;0.30;99.90
36552;DHT22;22559;54.176;12.102;2024-01-06T03:45:50;0.30;99.90
36552;DHT22;22559;54.176;12.102;2024-01-06T03:48:15;0.30;99.90
36552;DHT22;22559;54.176;12.102;2024-01-06T03:50:41;0.30;99.90
36552;DHT22;22559;54.176;12.102;2024-01-06T03:53:07;0.30;99.90
36552;DHT22;22559;54.176;12.102;2024-01-06T03:55:33;0.30;99.90
36552;DHT22;22559;54.176;12.102;2024-01-06T03:57:58;0.30;99.90
36552;DHT22;22559;54.176;12.102;2024-01-06T04:00:25;0.40;99.90
36552;DHT22;22559;54.176;12.102;2024-01-06T04:02:51;0.30;99.90
36552;DHT22;22559;54.176;12.102;2024-01-06T04:05:17;0.30;99.90
36552;DHT22;22559;54.176;12.102;2024-01-06T04:07:42;0.30;99.90
36552;DHT22;22559;54.176;12.102;2024-01-06T04:10:08;0.40;99.90
36552;DHT22;22559;54.176;12.102;2024-01-06T04:12:34;0.40;99.90
36552;DHT22;22559;54.176;12.102;2024-01-06T04:14:59;0.40;99.90
36552;DHT22;22559;54.176;12.102;2024-01-06T04:17:25;0.40;99.90
36552;DHT22;22559;54.176;12.102;2024-01-06T04:19:52;0.30;99.90
36552;DHT22;22559;54.176;12.102;2024-01-06T04:22:18;0.40;99.90
36552;DHT22;22559;54.176;12.102;2024-01-06T04:24:43;0.30;99.90
36552;DHT22;22559;54.176;12.102;2024-01-06T04:27:09;0.40;99.90
36552;DHT22;22559;54.176;12.102;2024-01-06T04:29:35;0.40;99.90
36552;DHT22;22559;54.176;12.102;2024-01-06T04:32:01;0.30;99.90
36552;DHT22;22559;54.176;12.102;2024-01-06T04:34:27;0.30;99.90
36552;DHT22;22559;54.176;12.102;2024-01-06T04:36:52;0.30;99.90
36552;DHT22;22559;54.176;12.102;2024-01-06T04:39:18;0.30;99.90
36552;DHT22;22559;54.176;12.102;2024-01-06T04:41:44;0.30;99.90
36552;DHT22;22559;54.176;12.102;2024-01-06T04:44:09;0.30;99.90
36552;DHT22;22559;54.176;12.102;2024-01-06T04:46:35;0.40;99.90
36552;DHT22;22559;54.176;12.102;2024-01-06T04:49:00;0.40;99.90
36552;DHT22;22559;54.176;12.102;2024-01-06T04:51:26;0.40;99.90
36552;DHT22;22559;54.176;12.102;2024-01-06T04:53:52;0.30;99.90
36552;DHT22;22559;54.176;12.102;2024-01-06T04:56:18;0.40;99.90
36552;DHT22;22559;54.176;12.102;2024-01-06T04:58:44;0.30;99.90
36552;DHT22;22559;54.176;12.102;2024-01-06T05:01:10;0.30;99.90
36552;DHT22;22559;54.176;12.102;2024-01-06T05:03:35;0.30;99.90
36552;DHT22;22559;54.176;12.102;2024-01-06T05:06:01;0.30;99.90
36552;DHT22;22559;54.176;12.102;2024-01-06T05:08:28;0.30;99.90
36552;DHT22;22559;54.176;12.102;2024-01-06T05:10:56;0.30;99.90
36552;DHT22;22559;54.176;12.102;2024-01-06T05:13:21;0.20;99.90
36552;DHT22;22559;54.176;12.102;2024-01-06T05:15:47;0.20;99.90
36552;DHT22;22559;54.176;12.102;2024-01-06T05:18:13;0.20;99.90
36552;DHT22;22559;54.176;12.102;2024-01-06T05:20:38;0.20;99.90
36552;DHT22;22559;54.176;12.102;2024-01-06T05:23:06;0.30;99.90
36552;DHT22;22559;54.176;12.102;2024-01-06T05:25:32;0.20;99.90
36552;DHT22;22559;54.176;12.102;2024-01-06T05:27:58;0.20;99.90
36552;DHT22;22559;54.176;12.102;2024-01-06T05:30:23;0.20;99.90
36552;DHT22;22559;54.176;12.102;2024-01-06T05:32:49;0.30;99.90
36552;DHT22;22559;54.176;12.102;2024-01-06T05:35:16;0.20;99.90
36552;DHT22;22559;54.176;12.102;2024-01-06T05:37:42;0.20;99.90
36552;DHT22;22559;54.176;12.102;2024-01-06T05:40:08;0.20;99.90
36552;DHT22;22559;54.176;12.102;2024-01-06T05:42:34;0.30;99.90
36552;DHT22;22559;54.176;12.102;2024-01-06T05:44:59;0.20;99.90
36552;DHT22;22559;54.176;12.102;2024-01-06T05:47:25;0.20;99.90
36552;DHT22;22559;54.176;12.102;2024-01-06T05:49:50;0.30;99.90
36552;DHT22;22559;54.176;12.102;2024-01-06T05:52:16;0.30;99.90
36552;DHT22;22559;54.176;12.102;2024-01-06T05:54:42;0.30;99.90
36552;DHT22;22559;54.176;12.102;2024-01-06T05:57:08;0.20;99.90
36552;DHT22;22559;54.176;12.102;2024-01-06T05:59:34;0.20;99.90
36552;DHT22;22559;54.176;12.102;2024-01-06T06:02:00;0.20;99.90
36552;DHT22;22559;54.176;12.102;2024-01-06T06:04:25;0.30;99.90
36552;DHT22;22559;54.176;12.102;2024-01-06T06:06:51;0.20;99.90
36552;DHT22;22559;54.176;12.102;2024-01-06T06:09:17;0.30;99.90
36552;DHT22;22559;54.176;12.102;2024-01-06T06:11:43;0.30;99.90
36552;DHT22;22559;54.176;12.102;2024-01-06T06:14:09;0.30;99.90
36552;DHT22;22559;54.176;12.102;2024-01-06T06:16:35;0.30;99.90
36552;DHT22;22559;54.176;12.102;2024-01-06T06:19:00;0.30;99.90
36552;DHT22;22559;54.176;12.102;2024-01-06T06:21:26;0.30;99.90
36552;DHT22;22559;54.176;12.102;2024-01-06T06:23:52;0.30;99.90
36552;DHT22;22559;54.176;12.102;2024-01-06T06:26:17;0.30;99.90
36552;DHT22;22559;54.176;12.102;2024-01-06T06:28:43;0.30;99.90
36552;DHT22;22559;54.176;12.102;2024-01-06T06:31:09;0.30;99.90
36552;DHT22;22559;54.176;12.102;2024-01-06T06:33:34;0.30;99.90
36552;DHT22;22559;54.176;12.102;2024-01-06T06:36:00;0.30;99.90
36552;DHT22;22559;54.176;12.102;2024-01-06T06:38:27;0.40;99.90
36552;DHT22;22559;54.176;12.102;2024-01-06T06:40:53;0.40;99.90
36552;DHT22;22559;54.176;12.102;2024-01-06T06:43:18;0.40;99.90
36552;DHT22;22559;54.176;12.102;2024-01-06T06:45:44;0.40;99.90
36552;DHT22;22559;54.176;12.102;2024-01-06T06:48:10;0.40;99.90
36552;DHT22;22559;54.176;12.102;2024-01-06T06:50:35;0.40;99.90
36552;DHT22;22559;54.176;12.102;2024-01-06T06:53:01;0.50;99.90
36552;DHT22;22559;54.176;12.102;2024-01-06T06:55:27;0.50;99.90
36552;DHT22;22559;54.176;12.102;2024-01-06T06:57:53;0.50;99.90
36552;DHT22;22559;54.176;12.102;2024-01-06T07:00:19;0.50;99.90
36552;DHT22;22559;54.176;12.102;2024-01-06T07:02:45;0.50;99.90
36552;DHT22;22559;54.176;12.102;2024-01-06T07:05:11;0.50;99.90
36552;DHT22;22559;54.176;12.102;2024-01-06T07:07:36;0.50;99.90
36552;DHT22;22559;54.176;12.102;2024-01-06T07:10:04;0.50;99.90
36552;DHT22;22559;54.176;12.102;2024-01-06T07:12:33;0.50;99.90
36552;DHT22;22559;54.176;12.102;2024-01-06T07:14:59;0.50;99.90
36552;DHT22;22559;54.176;12.102;2024-01-06T07:17:25;0.50;99.90
36552;DHT22;22559;54.176;12.102;2024-01-06T07:19:50;0.50;99.90
36552;DHT22;22559;54.176;12.102;2024-01-06T07:22:16;0.50;99.90
36552;DHT22;22559;54.176;12.102;2024-01-06T07:24:43;0.50;99.90
36552;DHT22;22559;54.176;12.102;2024-01-06T07:27:09;0.60;99.90
36552;DHT22;22559;54.176;12.102;2024-01-06T07:29:35;0.60;99.90
36552;DHT22;22559;54.176;12.102;2024-01-06T07:32:00;0.50;99.90
36552;DHT22;22559;54.176;12.102;2024-01-06T07:34:26;0.50;99.90
36552;DHT22;22559;54.176;12.102;2024-01-06T07:36:52;0.60;99.90
36552;DHT22;22559;54.176;12.102;2024-01-06T07:39:18;0.60;99.90
36552;DHT22;22559;54.176;12.102;2024-01-06T07:41:44;0.60;99.90
36552;DHT22;22559;54.176;12.102;2024-01-06T07:44:14;0.60;99.90
36552;DHT22;22559;54.176;12.102;2024-01-06T07:46:41;0.60;99.90
36552;DHT22;22559;54.176;12.102;2024-01-06T07:49:07;0.60;99.90
36552;DHT22;22559;54.176;12.102;2024-01-06T07:51:33;0.60;99.90
36552;DHT22;22559;54.176;12.102;2024-01-06T07:54:00;0.60;99.90
36552;DHT22;22559;54.176;12.102;2024-01-06T07:56:26;0.70;99.90
36552;DHT22;22559;54.176;12.102;2024-01-06T07:58:52;0.70;99.90
36552;DHT22;22559;54.176;12.102;2024-01-06T08:01:18;0.70;99.90
36552;DHT22;22559;54.176;12.102;2024-01-06T08:03:43;0.70;99.90
36552;DHT22;22559;54.176;12.102;2024-01-06T08:06:10;0.80;99.90
36552;DHT22;22559;54.176;12.102;2024-01-06T08:08:35;0.80;99.90
36552;DHT22;22559;54.176;12.102;2024-01-06T08:11:01;0.80;99.90
36552;DHT22;22559;54.176;12.102;2024-01-06T08:13:27;0.80;99.90
36552;DHT22;22559;54.176;12.102;2024-01-06T08:15:52;0.80;99.90
36552;DHT22;22559;54.176;12.102;2024-01-06T08:18:18;0.80;99.90
36552;DHT22;22559;54.176;12.102;2024-01-06T08:20:44;0.90;99.90
36552;DHT22;22559;54.176;12.102;2024-01-06T08:23:09;0.80;99.90
36552;DHT22;22559;54.176;12.102;2024-01-06T08:25:36;0.80;99.90
36552;DHT22;22559;54.176;12.102;2024-01-06T08:28:01;0.80;99.90
36552;DHT22;22559;54.176;12.102;2024-01-06T08:30:27;0.80;99.90
36552;DHT22;22559;54.176;12.102;2024-01-06T08:32:53;0.80;99.90
36552;DHT22;22559;54.176;12.102;2024-01-06T08:35:19;0.90;99.90
36552;DHT22;22559;54.176;12.102;2024-01-06T08:37:45;0.90;99.90
36552;DHT22;22559;54.176;12.102;2024-01-06T08:40:11;0.90;99.90
36552;DHT22;22559;54.176;12.102;2024-01-06T08:42:37;0.90;99.90
36552;DHT22;22559;54.176;12.102;2024-01-06T08:45:03;0.90;99.90
36552;DHT22;22559;54.176;12.102;2024-01-06T08:47:30;0.90;99.90
36552;DHT22;22559;54.176;12.102;2024-01-06T08:49:56;0.90;99.90
36552;DHT22;22559;54.176;12.102;2024-01-06T08:52:22;1.00;99.90
36552;DHT22;22559;54.176;12.102;2024-01-06T08:54:47;1.00;99.90
36552;DHT22;22559;54.176;12.102;2024-01-06T08:57:15;1.00;99.90
36552;DHT22;22559;54.176;12.102;2024-01-06T08:59:40;1.00;99.90
36552;DHT22;22559;54.176;12.102;2024-01-06T09:02:06;1.00;99.90
36552;DHT22;22559;54.176;12.102;2024-01-06T09:04:32;1.00;99.90
36552;DHT22;22559;54.176;12.102;2024-01-06T09:06:57;1.00;99.90
36552;DHT22;22559;54.176;12.102;2024-01-06T09:09:23;1.00;99.90
36552;DHT22;22559;54.176;12.102;2024-01-06T09:11:49;1.00;99.90
36552;DHT22;22559;54.176;12.102;2024-01-06T09:14:17;1.20;99.90
36552;DHT22;22559;54.176;12.102;2024-01-06T09:16:43;1.20;99.90
36552;DHT22;22559;54.176;12.102;2024-01-06T09:19:08;1.20;99.90
36552;DHT22;22559;54.176;12.102;2024-01-06T09:21:34;1.30;99.90
36552;DHT22;22559;54.176;12.102;2024-01-06T09:24:01;1.40;99.90
36552;DHT22;22559;54.176;12.102;2024-01-06T09:26:32;1.40;99.90
36552;DHT22;22559;54.176;12.102;2024-01-06T09:28:57;1.40;99.90
36552;DHT22;22559;54.176;12.102;2024-01-06T09:31:23;1.40;99.90
36552;DHT22;22559;54.176;12.102;2024-01-06T09:33:49;1.30;99.90
36552;DHT22;22559;54.176;12.102;2024-01-06T09:36:15;1.40;99.90
36552;DHT22;22559;54.176;12.102;2024-01-06T09:38:41;1.40;99.90
36552;DHT22;22559;54.176;12.102;2024-01-06T09:41:06;1.40;99.90
36552;DHT22;22559;54.176;12.102;2024-01-06T09:43:32;1.30;99.90
36552;DHT22;22559;54.176;12.102;2024-01-06T09:46:06;1.40;99.90
36552;DHT22;22559;54.176;12.102;2024-01-06T09:48:38;1.40;99.90
36552;DHT22;22559;54.176;12.102;2024-01-06T09:51:05;1.40;99.90
36552;DHT22;22559;54.176;12.102;2024-01-06T09:53:36;1.40;99.90
36552;DHT22;22559;54.176;12.102;2024-01-06T09:56:06;1.40;99.90
36552;DHT22;22559;54.176;12.102;2024-01-06T09:58:34;1.40;99.90
36552;DHT22;22559;54.176;12.102;2024-01-06T10:01:02;1.40;99.90
36552;DHT22;22559;54.176;12.102;2024-01-06T10:03:28;1.30;99.90
36552;DHT22;22559;54.176;12.102;2024-01-06T10:05:54;1.40;99.90
36552;DHT22;22559;54.176;12.102;2024-01-06T10:08:19;1.40;99.90
36552;DHT22;22559;54.176;12.102;2024-01-06T10:10:45;1.40;99.90
36552;DHT22;22559;54.176;12.102;2024-01-06T10:13:11;1.50;99.90
36552;DHT22;22559;54.176;12.102;2024-01-06T10:15:36;1.40;99.90
36552;DHT22;22559;54.176;12.102;2024-01-06T10:18:03;1.40;99.90
36552;DHT22;22559;54.176;12.102;2024-01-06T10:20:29;1.40;99.90
36552;DHT22;22559;54.176;12.102;2024-01-06T10:22:54;1.40;99.90
36552;DHT22;22559;54.176;12.102;2024-01-06T10:25:23;1.40;99.90
36552;DHT22;22559;54.176;12.102;2024-01-06T10:27:49;1.50;99.90
36552;DHT22;22559;54.176;12.102;2024-01-06T10:30:15;1.50;99.90
36552;DHT22;22559;54.176;12.102;2024-01-06T10:32:43;1.50;99.90
36552;DHT22;22559;54.176;12.102;2024-01-06T10:35:09;1.50;99.90
36552;DHT22;22559;54.176;12.102;2024-01-06T10:37:35;1.60;99.90
36552;DHT22;22559;54.176;12.102;2024-01-06T10:40:12;1.50;99.90
36552;DHT22;22559;54.176;12.102;2024-01-06T10:42:39;1.60;99.90
36552;DHT22;22559;54.176;12.102;2024-01-06T10:45:13;1.60;99.90
36552;DHT22;22559;54.176;12.102;2024-01-06T10:47:43;1.60;99.90
36552;DHT22;22559;54.176;12.102;2024-01-06T10:50:09;1.60;99.90
36552;DHT22;22559;54.176;12.102;2024-01-06T10:52:35;1.60;99.90
36552;DHT22;22559;54.176;12.102;2024-01-06T10:55:04;1.60;99.90
36552;DHT22;22559;54.176;12.102;2024-01-06T10:57:31;1.60;99.90
36552;DHT22;22559;54.176;12.102;2024-01-06T10:59:58;1.70;99.90
36552;DHT22;22559;54.176;12.102;2024-01-06T11:02:24;1.70;99.90
36552;DHT22;22559;54.176;12.102;2024-01-06T11:04:53;1.70;99.90
36552;DHT22;22559;54.176;12.102;2024-01-06T11:07:24;1.80;99.90
36552;DHT22;22559;54.176;12.102;2024-01-06T11:10:02;1.70;99.90
36552;DHT22;22559;54.176;12.102;2024-01-06T11:12:29;1.80;99.90
36552;DHT22;22559;54.176;12.102;2024-01-06T11:14:55;1.80;99.90
36552;DHT22;22559;54.176;12.102;2024-01-06T11:17:49;1.70;99.90
36552;DHT22;22559;54.176;12.102;2024-01-06T11:20:18;1.80;99.90
36552;DHT22;22559;54.176;12.102;2024-01-06T11:22:44;1.80;99.90
36552;DHT22;22559;54.176;12.102;2024-01-06T11:25:16;1.80;99.90
36552;DHT22;22559;54.176;12.102;2024-01-06T11:27:43;1.80;99.90
36552;DHT22;22559;54.176;12.102;2024-01-06T11:30:23;1.90;99.90
36552;DHT22;22559;54.176;12.102;2024-01-06T11:32:53;1.80;99.90
36552;DHT22;22559;54.176;12.102;2024-01-06T11:35:21;1.90;99.90
36552;DHT22;22559;54.176;12.102;2024-01-06T11:42:57;1.90;99.90
36552;DHT22;22559;54.176;12.102;2024-01-06T11:45:24;1.90;99.90
36552;DHT22;22559;54.176;12.102;2024-01-06T11:47:57;1.90;99.90
36552;DHT22;22559;54.176;12.102;2024-01-06T11:50:28;2.00;99.90
36552;DHT22;22559;54.176;12.102;2024-01-06T11:52:54;1.90;99.90
36552;DHT22;22559;54.176;12.102;2024-01-06T11:55:20;1.90;99.90
36552;DHT22;22559;54.176;12.102;2024-01-06T11:57:46;1.80;99.90
36552;DHT22;22559;54.176;12.102;2024-01-06T12:00:13;1.80;99.90
36552;DHT22;22559;54.176;12.102;2024-01-06T12:02:40;1.80;99.90
36552;DHT22;22559;54.176;12.102;2024-01-06T12:05:06;1.70;99.90
36552;DHT22;22559;54.176;12.102;2024-01-06T12:07:37;1.60;99.90
36552;DHT22;22559;54.176;12.102;2024-01-06T12:10:03;1.70;99.90
36552;DHT22;22559;54.176;12.102;2024-01-06T12:12:29;1.60;99.90
36552;DHT22;22559;54.176;12.102;2024-01-06T12:14:55;1.50;99.90
36552;DHT22;22559;54.176;12.102;2024-01-06T12:17:21;1.40;99.90
36552;DHT22;22559;54.176;12.102;2024-01-06T12:19:47;1.50;99.90
36552;DHT22;22559;54.176;12.102;2024-01-06T12:22:14;1.50;99.90
36552;DHT22;22559;54.176;12.102;2024-01-06T12:24:41;1.50;99.90
36552;DHT22;22559;54.176;12.102;2024-01-06T12:27:09;1.60;99.90
36552;DHT22;22559;54.176;12.102;2024-01-06T12:29:38;1.60;99.90
36552;DHT22;22559;54.176;12.102;2024-01-06T12:32:05;1.60;99.90
36552;DHT22;22559;54.176;12.102;2024-01-06T12:34:31;1.50;99.90
36552;DHT22;22559;54.176;12.102;2024-01-06T12:36:57;1.60;99.90
36552;DHT22;22559;54.176;12.102;2024-01-06T12:39:27;1.50;99.90
36552;DHT22;22559;54.176;12.102;2024-01-06T12:41:54;1.50;99.90
36552;DHT22;22559;54.176;12.102;2024-01-06T12:44:20;1.50;99.90
36552;DHT22;22559;54.176;12.102;2024-01-06T12:46:46;1.40;99.90
36552;DHT22;22559;54.176;12.102;2024-01-06T12:49:12;1.40;99.90
36552;DHT22;22559;54.176;12.102;2024-01-06T12:51:38;1.40;99.90
36552;DHT22;22559;54.176;12.102;2024-01-06T12:54:03;1.40;99.90
36552;DHT22;22559;54.176;12.102;2024-01-06T12:56:29;1.40;99.90
36552;DHT22;22559;54.176;12.102;2024-01-06T12:58:55;1.40;99.90
36552;DHT22;22559;54.176;12.102;2024-01-06T13:01:21;1.40;99.90
36552;DHT22;22559;54.176;12.102;2024-01-06T13:03:47;1.40;99.90
36552;DHT22;22559;54.176;12.102;2024-01-06T13:06:13;1.40;99.90
36552;DHT22;22559;54.176;12.102;2024-01-06T13:08:40;1.40;99.90
36552;DHT22;22559;54.176;12.102;2024-01-06T13:11:05;1.40;99.90
36552;DHT22;22559;54.176;12.102;2024-01-06T13:13:32;1.40;99.90
36552;DHT22;22559;54.176;12.102;2024-01-06T13:15:57;1.40;99.90
36552;DHT22;22559;54.176;12.102;2024-01-06T13:18:23;1.30;99.90
36552;DHT22;22559;54.176;12.102;2024-01-06T13:20:49;1.30;99.90
36552;DHT22;22559;54.176;12.102;2024-01-06T13:23:15;1.30;99.90
36552;DHT22;22559;54.176;12.102;2024-01-06T13:25:41;1.30;99.90
36552;DHT22;22559;54.176;12.102;2024-01-06T13:28:07;1.30;99.90
36552;DHT22;22559;54.176;12.102;2024-01-06T13:30:33;1.30;99.90
36552;DHT22;22559;54.176;12.102;2024-01-06T13:32:59;1.20;99.90
36552;DHT22;22559;54.176;12.102;2024-01-06T13:35:25;1.20;99.90
36552;DHT22;22559;54.176;12.102;2024-01-06T13:37:52;1.20;99.90
36552;DHT22;22559;54.176;12.102;2024-01-06T13:40:18;1.20;99.90
36552;DHT22;22559;54.176;12.102;2024-01-06T13:42:47;1.10;99.90
36552;DHT22;22559;54.176;12.102;2024-01-06T13:45:13;1.10;99.90
36552;DHT22;22559;54.176;12.102;2024-01-06T13:47:39;1.10;99.90
36552;DHT22;22559;54.176;12.102;2024-01-06T13:50:11;1.10;99.90
36552;DHT22;22559;54.176;12.102;2024-01-06T13:52:38;1.10;99.90
36552;DHT22;22559;54.176;12.102;2024-01-06T13:55:04;1.10;99.90
36552;DHT22;22559;54.176;12.102;2024-01-06T13:57:30;1.10;99.90
36552;DHT22;22559;54.176;12.102;2024-01-06T13:59:55;1.10;99.90
36552;DHT22;22559;54.176;12.102;2024-01-06T14:02:23;1.00;99.90
36552;DHT22;22559;54.176;12.102;2024-01-06T14:04:49;1.00;99.90
36552;DHT22;22559;54.176;12.102;2024-01-06T14:07:15;1.00;99.90
36552;DHT22;22559;54.176;12.102;2024-01-06T14:09:44;1.00;99.90
36552;DHT22;22559;54.176;12.102;2024-01-06T14:12:10;1.00;99.90
36552;DHT22;22559;54.176;12.102;2024-01-06T14:14:35;1.00;99.90
36552;DHT22;22559;54.176;12.102;2024-01-06T14:17:01;1.00;99.90
36552;DHT22;22559;54.176;12.102;2024-01-06T14:19:28;1.00;99.90
36552;DHT22;22559;54.176;12.102;2024-01-06T14:21:53;1.00;99.90
36552;DHT22;22559;54.176;12.102;2024-01-06T14:24:19;1.00;99.90
36552;DHT22;22559;54.176;12.102;2024-01-06T14:26:49;1.00;99.90
36552;DHT22;22559;54.176;12.102;2024-01-06T14:29:15;1.00;99.90
36552;DHT22;22559;54.176;12.102;2024-01-06T14:31:45;1.00;99.90
36552;DHT22;22559;54.176;12.102;2024-01-06T14:34:10;0.90;99.90
36552;DHT22;22559;54.176;12.102;2024-01-06T14:36:36;0.90;99.90
36552;DHT22;22559;54.176;12.102;2024-01-06T14:39:02;0.90;99.90
36552;DHT22;22559;54.176;12.102;2024-01-06T14:41:29;0.90;99.90
36552;DHT22;22559;54.176;12.102;2024-01-06T14:43:55;0.90;99.90
36552;DHT22;22559;54.176;12.102;2024-01-06T14:46:21;0.90;99.90
36552;DHT22;22559;54.176;12.102;2024-01-06T14:48:46;0.90;99.90
36552;DHT22;22559;54.176;12.102;2024-01-06T14:51:12;0.80;99.90
36552;DHT22;22559;54.176;12.102;2024-01-06T14:53:38;0.80;99.90
36552;DHT22;22559;54.176;12.102;2024-01-06T14:56:04;0.80;99.90
36552;DHT22;22559;54.176;12.102;2024-01-06T14:58:30;0.80;99.90
36552;DHT22;22559;54.176;12.102;2024-01-06T15:00:56;0.80;99.90
36552;DHT22;22559;54.176;12.102;2024-01-06T15:03:21;0.70;99.90
36552;DHT22;22559;54.176;12.102;2024-01-06T15:05:49;0.70;99.90
36552;DHT22;22559;54.176;12.102;2024-01-06T15:08:14;0.80;99.90
36552;DHT22;22559;54.176;12.102;2024-01-06T15:10:40;0.70;99.90
36552;DHT22;22559;54.176;12.102;2024-01-06T15:13:06;0.70;99.90
36552;DHT22;22559;54.176;12.102;2024-01-06T15:15:31;0.70;99.90
36552;DHT22;22559;54.176;12.102;2024-01-06T15:17:57;0.70;99.90
36552;DHT22;22559;54.176;12.102;2024-01-06T15:20:22;0.70;99.90
36552;DHT22;22559;54.176;12.102;2024-01-06T15:22:48;0.60;99.90
36552;DHT22;22559;54.176;12.102;2024-01-06T15:25:14;0.60;99.90
36552;DHT22;22559;54.176;12.102;2024-01-06T15:27:40;0.60;99.90
36552;DHT22;22559;54.176;12.102;2024-01-06T15:30:06;0.60;99.90